Time,TemperatureF,DewpointF,PressureIn,WindDirection,WindDirectionDegrees,WindSpeedMPH,WindSpeedGustMPH,Humidity,HourlyPrecipIn,Conditions,Clouds,dailyrainin,SolarRadiationWatts/m^2,SoftwareType,DateUTC
2013-01-09 00:03:00,27.0,24.0,-100.00,SSE,168,1.0,3.0,90,0.00,,,0.01,0.000000,,2013-01-09 05:03:00,
2013-01-09 00:12:00,27.0,24.0,-100.00,SSE,168,1.0,3.0,90,0.00,,,0.01,0.000000,,2013-01-09 05:12:00,
2013-01-09 00:22:00,27.0,24.0,-100.00,SSE,168,1.0,3.0,90,0.00,,,0.01,0.000000,,2013-01-09 05:22:00,
2013-01-09 00:53:00,27.0,24.0,-100.00,North,1,0.0,3.0,89,0.00,,,0.01,0.000000,,2013-01-09 05:53:00,
2013-01-09 01:02:00,27.0,24.0,-100.00,North,1,0.0,3.0,89,0.00,,,0.01,0.000000,,2013-01-09 06:02:00,
2013-01-09 01:12:00,27.0,24.0,-100.00,North,1,0.0,3.0,89,0.00,,,0.01,0.000000,,2013-01-09 06:12:00,
2013-01-09 01:22:00,27.0,24.0,-100.00,North,1,0.0,3.0,89,0.00,,,0.01,0.000000,,2013-01-09 06:22:00,
2013-01-09 01:53:00,27.0,25.0,-100.00,East,90,0.0,0.0,92,0.00,,,0.01,0.000000,,2013-01-09 06:53:00,
2013-01-09 02:02:00,27.0,25.0,-100.00,East,90,0.0,0.0,92,0.00,,,0.01,0.000000,,2013-01-09 07:02:00,
2013-01-09 02:12:00,27.0,25.0,-100.00,East,90,0.0,0.0,92,0.00,,,0.01,0.000000,,2013-01-09 07:12:00,
2013-01-09 02:22:00,27.0,25.0,-100.00,East,90,0.0,0.0,92,0.00,,,0.01,0.000000,,2013-01-09 07:22:00,
2013-01-09 02:52:00,26.0,24.0,-100.00,East,96,0.0,0.0,93,0.00,,,0.01,0.000000,,2013-01-09 07:52:00,
2013-01-09 03:02:00,26.0,24.0,-100.00,East,96,0.0,0.0,93,0.00,,,0.01,0.000000,,2013-01-09 08:02:00,
2013-01-09 03:12:00,26.0,24.0,-100.00,East,96,0.0,0.0,93,0.00,,,0.01,0.000000,,2013-01-09 08:12:00,
2013-01-09 03:22:00,26.0,24.0,-100.00,East,96,0.0,0.0,93,0.00,,,0.01,0.000000,,2013-01-09 08:22:00,
2013-01-09 03:53:00,24.0,22.0,-100.00,ESE,108,1.0,4.0,92,0.00,,,0.01,0.000000,,2013-01-09 08:53:00,
2013-01-09 04:02:00,24.0,22.0,-100.00,ESE,108,1.0,4.0,92,0.00,,,0.01,0.000000,,2013-01-09 09:02:00,
2013-01-09 04:12:00,24.0,22.0,-100.00,ESE,108,1.0,4.0,92,0.00,,,0.01,0.000000,,2013-01-09 09:12:00,
2013-01-09 04:22:00,24.0,22.0,-100.00,ESE,108,1.0,4.0,92,0.00,,,0.01,0.000000,,2013-01-09 09:22:00,
2013-01-09 04:53:00,21.0,19.0,-100.00,ESE,102,2.0,5.0,91,0.00,,,0.01,0.000000,,2013-01-09 09:53:00,
2013-01-09 05:02:00,21.0,19.0,-100.00,ESE,102,2.0,5.0,91,0.00,,,0.01,0.000000,,2013-01-09 10:02:00,
2013-01-09 05:12:00,21.0,19.0,-100.00,ESE,102,2.0,5.0,91,0.00,,,0.01,0.000000,,2013-01-09 10:12:00,
2013-01-09 05:22:00,21.0,19.0,-100.00,ESE,102,2.0,5.0,91,0.00,,,0.01,0.000000,,2013-01-09 10:22:00,
2013-01-09 05:52:00,19.0,17.0,-100.00,SSE,154,1.0,3.0,91,0.00,,,0.01,0.000000,,2013-01-09 10:52:00,
2013-01-09 06:02:00,19.0,17.0,-100.00,SSE,154,1.0,3.0,91,0.00,,,0.01,0.000000,,2013-01-09 11:02:00,
2013-01-09 06:12:00,19.0,17.0,-100.00,SSE,154,1.0,3.0,91,0.00,,,0.01,0.000000,,2013-01-09 11:12:00,
2013-01-09 06:22:00,19.0,17.0,-100.00,SSE,154,1.0,3.0,91,0.00,,,0.01,0.000000,,2013-01-09 11:22:00,
2013-01-09 06:53:00,17.0,15.0,-100.00,SSE,155,1.0,3.0,90,0.00,,,0.01,0.000000,,2013-01-09 11:53:00,
2013-01-09 07:03:00,17.0,15.0,-100.00,SSE,155,1.0,3.0,90,0.00,,,0.01,0.000000,,2013-01-09 12:03:00,
2013-01-09 07:12:00,17.0,15.0,-100.00,SSE,155,1.0,3.0,90,0.00,,,0.01,0.000000,,2013-01-09 12:12:00,
2013-01-09 07:23:00,17.0,15.0,-100.00,SSE,155,1.0,3.0,90,0.00,,,0.01,0.000000,,2013-01-09 12:23:00,
2013-01-09 07:53:00,15.0,12.0,-100.00,ESE,111,1.0,3.0,88,0.00,,,0.01,1.000000,,2013-01-09 12:53:00,
2013-01-09 08:03:00,15.0,12.0,-100.00,ESE,111,1.0,3.0,88,0.00,,,0.01,1.000000,,2013-01-09 13:03:00,
2013-01-09 08:12:00,15.0,12.0,-100.00,ESE,111,1.0,3.0,88,0.00,,,0.01,1.000000,,2013-01-09 13:12:00,
2013-01-09 08:23:00,15.0,12.0,-100.00,ESE,111,1.0,3.0,88,0.00,,,0.01,1.000000,,2013-01-09 13:23:00,
2013-01-09 08:53:00,14.0,11.0,-100.00,ESE,102,1.0,3.0,87,0.00,,,0.01,13.000000,,2013-01-09 13:53:00,
2013-01-09 09:03:00,14.0,11.0,-100.00,ESE,102,1.0,3.0,87,0.00,,,0.01,13.000000,,2013-01-09 14:03:00,
2013-01-09 09:12:00,14.0,11.0,-100.00,ESE,102,1.0,3.0,87,0.00,,,0.01,13.000000,,2013-01-09 14:12:00,
2013-01-09 09:23:00,14.0,11.0,-100.00,ESE,102,1.0,3.0,87,0.00,,,0.01,13.000000,,2013-01-09 14:23:00,
2013-01-09 09:53:00,20.0,17.0,-100.00,SE,124,3.0,8.0,88,0.00,,,0.01,67.000000,,2013-01-09 14:53:00,
2013-01-09 10:03:00,20.0,17.0,-100.00,SE,124,3.0,8.0,88,0.00,,,0.01,67.000000,,2013-01-09 15:03:00,
2013-01-09 10:13:00,20.0,17.0,-100.00,SE,124,3.0,8.0,88,0.00,,,0.01,67.000000,,2013-01-09 15:13:00,
2013-01-09 10:23:00,20.0,17.0,-100.00,SE,124,3.0,8.0,88,0.00,,,0.01,67.000000,,2013-01-09 15:23:00,
2013-01-09 10:53:00,28.0,21.0,-100.00,ESE,109,6.0,11.0,76,0.00,,,0.01,110.000000,,2013-01-09 15:53:00,
2013-01-09 11:04:00,28.0,21.0,-100.00,ESE,109,6.0,11.0,76,0.00,,,0.01,110.000000,,2013-01-09 16:04:00,
2013-01-09 11:12:00,28.0,21.0,-100.00,ESE,109,6.0,11.0,76,0.00,,,0.01,110.000000,,2013-01-09 16:12:00,
2013-01-09 11:23:00,28.0,21.0,-100.00,ESE,109,6.0,11.0,76,0.00,,,0.01,110.000000,,2013-01-09 16:23:00,
2013-01-09 11:53:00,32.0,23.0,-100.00,SE,130,4.0,13.0,68,0.00,,,0.01,187.000000,,2013-01-09 16:53:00,
2013-01-09 12:03:00,32.0,23.0,-100.00,SE,130,4.0,13.0,68,0.00,,,0.01,187.000000,,2013-01-09 17:03:00,
2013-01-09 12:12:00,32.0,23.0,-100.00,SE,130,4.0,13.0,68,0.00,,,0.01,187.000000,,2013-01-09 17:12:00,
2013-01-09 12:23:00,32.0,23.0,-100.00,SE,130,4.0,13.0,68,0.00,,,0.01,187.000000,,2013-01-09 17:23:00,
2013-01-09 12:53:00,32.0,22.0,-100.00,SE,134,3.0,8.0,65,0.00,,,0.00,130.000000,,2013-01-09 17:53:00,
2013-01-09 13:03:00,32.0,22.0,-100.00,SE,134,3.0,8.0,65,0.00,,,0.00,130.000000,,2013-01-09 18:03:00,
2013-01-09 13:13:00,32.0,22.0,-100.00,SE,134,3.0,8.0,65,0.00,,,0.00,130.000000,,2013-01-09 18:13:00,
2013-01-09 13:24:00,32.0,22.0,-100.00,SE,134,3.0,8.0,65,0.00,,,0.00,130.000000,,2013-01-09 18:24:00,
2013-01-09 13:53:00,32.0,22.0,-100.00,SE,138,4.0,15.0,67,0.00,,,0.00,94.000000,,2013-01-09 18:53:00,
2013-01-09 14:03:00,32.0,22.0,-100.00,SE,138,4.0,15.0,67,0.00,,,0.00,94.000000,,2013-01-09 19:03:00,
2013-01-09 14:13:00,32.0,22.0,-100.00,SE,138,4.0,15.0,67,0.00,,,0.00,94.000000,,2013-01-09 19:13:00,
2013-01-09 14:23:00,32.0,22.0,-100.00,SE,138,4.0,15.0,67,0.00,,,0.00,94.000000,,2013-01-09 19:23:00,
2013-01-09 14:53:00,33.0,21.0,-100.00,SE,144,5.0,15.0,60,0.00,,,0.00,75.000000,,2013-01-09 19:53:00,
2013-01-09 15:03:00,33.0,21.0,-100.00,SE,144,5.0,15.0,60,0.00,,,0.00,75.000000,,2013-01-09 20:03:00,
2013-01-09 15:12:00,33.0,21.0,-100.00,SE,144,5.0,15.0,60,0.00,,,0.00,75.000000,,2013-01-09 20:12:00,
2013-01-09 15:23:00,33.0,21.0,-100.00,SE,144,5.0,15.0,60,0.00,,,0.00,75.000000,,2013-01-09 20:23:00,
2013-01-09 15:53:00,30.0,27.0,-100.00,SE,124,4.0,15.0,90,0.00,,,0.00,12.000000,,2013-01-09 20:53:00,
2013-01-09 16:04:00,30.0,27.0,-100.00,SE,124,4.0,15.0,90,0.00,,,0.00,12.000000,,2013-01-09 21:04:00,
2013-01-09 16:13:00,30.0,27.0,-100.00,SE,124,4.0,15.0,90,0.00,,,0.00,12.000000,,2013-01-09 21:13:00,
2013-01-09 16:23:00,30.0,27.0,-100.00,SE,124,4.0,15.0,90,0.00,,,0.00,12.000000,,2013-01-09 21:23:00,
2013-01-09 16:53:00,29.0,27.0,-100.00,ESE,103,4.0,10.0,92,0.00,,,0.00,4.000000,,2013-01-09 21:53:00,
2013-01-09 17:03:00,29.0,27.0,-100.00,ESE,103,4.0,10.0,92,0.00,,,0.00,4.000000,,2013-01-09 22:03:00,
2013-01-09 17:12:00,29.0,27.0,-100.00,ESE,103,4.0,10.0,92,0.00,,,0.00,4.000000,,2013-01-09 22:12:00,
2013-01-09 17:23:00,29.0,27.0,-100.00,ESE,103,4.0,10.0,92,0.00,,,0.00,4.000000,,2013-01-09 22:23:00,
2013-01-09 17:53:00,30.0,28.0,-100.00,SE,127,2.0,10.0,91,0.00,,,0.00,0.000000,,2013-01-09 22:53:00,
2013-01-09 18:03:00,30.0,28.0,-100.00,SE,127,2.0,10.0,91,0.00,,,0.00,0.000000,,2013-01-09 23:03:00,
2013-01-09 18:13:00,30.0,28.0,-100.00,SE,127,2.0,10.0,91,0.00,,,0.00,0.000000,,2013-01-09 23:13:00,
2013-01-09 18:23:00,30.0,28.0,-100.00,SE,127,2.0,10.0,91,0.00,,,0.00,0.000000,,2013-01-09 23:23:00,
2013-01-09 18:53:00,30.0,28.0,-100.00,East,101,4.0,8.0,93,0.00,,,0.00,0.000000,,2013-01-09 23:53:00,
2013-01-09 19:03:00,30.0,28.0,-100.00,East,101,4.0,8.0,93,0.00,,,0.00,0.000000,,2013-01-10 00:03:00,
2013-01-09 19:12:00,30.0,28.0,-100.00,East,101,4.0,8.0,93,0.00,,,0.00,0.000000,,2013-01-10 00:12:00,
2013-01-09 19:22:00,30.0,28.0,-100.00,East,101,4.0,8.0,93,0.00,,,0.00,0.000000,,2013-01-10 00:22:00,
2013-01-09 19:53:00,30.0,27.0,-100.00,East,91,3.0,9.0,88,0.00,,,0.00,0.000000,,2013-01-10 00:53:00,
2013-01-09 20:03:00,30.0,27.0,-100.00,East,91,3.0,9.0,88,0.00,,,0.00,0.000000,,2013-01-10 01:03:00,
2013-01-09 20:12:00,30.0,27.0,-100.00,East,91,3.0,9.0,88,0.00,,,0.00,0.000000,,2013-01-10 01:12:00,
2013-01-09 20:22:00,30.0,27.0,-100.00,East,91,3.0,9.0,88,0.00,,,0.00,0.000000,,2013-01-10 01:22:00,
2013-01-09 20:53:00,33.0,27.0,-100.00,West,262,5.0,12.0,79,0.00,,,0.00,0.000000,,2013-01-10 01:53:00,
2013-01-09 21:03:00,33.0,27.0,-100.00,West,262,5.0,12.0,79,0.00,,,0.00,0.000000,,2013-01-10 02:03:00,
2013-01-09 21:12:00,33.0,27.0,-100.00,West,262,5.0,12.0,79,0.00,,,0.00,0.000000,,2013-01-10 02:12:00,
2013-01-09 21:22:00,33.0,27.0,-100.00,West,262,5.0,12.0,79,0.00,,,0.00,0.000000,,2013-01-10 02:22:00,
2013-01-09 22:03:00,32.0,31.0,-100.00,WSW,257,3.0,14.0,95,0.00,,,0.00,0.000000,,2013-01-10 03:03:00,
2013-01-09 22:12:00,32.0,31.0,-100.00,WSW,257,3.0,14.0,95,0.00,,,0.00,0.000000,,2013-01-10 03:12:00,
2013-01-09 22:22:00,32.0,31.0,-100.00,WSW,257,3.0,14.0,95,0.00,,,0.00,0.000000,,2013-01-10 03:22:00,
2013-01-09 22:53:00,33.0,30.0,-100.00,West,274,4.0,11.0,90,0.00,,,0.00,0.000000,,2013-01-10 03:53:00,
2013-01-09 23:02:00,33.0,30.0,-100.00,West,274,4.0,11.0,90,0.00,,,0.00,0.000000,,2013-01-10 04:02:00,
2013-01-09 23:12:00,33.0,30.0,-100.00,West,274,4.0,11.0,90,0.00,,,0.00,0.000000,,2013-01-10 04:12:00,
2013-01-09 23:22:00,33.0,30.0,-100.00,West,274,4.0,11.0,90,0.00,,,0.00,0.000000,,2013-01-10 04:22:00,
2013-01-09 23:53:00,32.0,30.0,-100.00,WNW,288,5.0,12.0,93,0.00,,,0.00,0.000000,,2013-01-10 04:53:00,